Aviation Digital Data Service (ADDS)

Output produced by METARs form (0242 UTC 12 May 2021)
found at http://www.aviationweather.gov/metar/data/
 
METAR text: RJTI 120200Z 14008KT 9999 FEW030 SCT050 BKN/// 20/12 Q1021
Conditions at: RJTI (TOKYO HELIPORT , JP) observed 0200 UTC 12 May 2021
Temperature: 20.0°C (68°F)
Dewpoint: 12.0°C (54°F) [RH = 60%]
Pressure (altimeter): 30.15 inches Hg (1021.0 mb)
Winds: from the SE (140 degrees) at 9 MPH (8 knots; 4.1 m/s)
Visibility: 6 or more miles (10+ km)
Ceiling: at least 12,000 feet AGL
Clouds: few clouds at 3000 feet AGL
scattered clouds at 5000 feet AGL
Weather: no significant weather observed at this time